Portada
METAR-TAF:

METAR-TAF

Aeroports :

Munda, New Georgia, Illes Salomó

latitud: 8-19-41S, longitud: 157-15-47E, altitud: 3 m

Observació

L'informe es va fer fa 12 hores i 18 minuts, a les 01:00 UTC
Vent calma
Temperatura 30°C
Humitat 75%
Pressió 1010 hPa
Visibilitat 10 km o més
Escasses núvols a una alçada de 1800 ft

METAR: AGGM 030100Z 00000KT 9999 FEW018 30/25 Q1010

Hora: 00:18 (13:18 UTC)

Pronòstic

L'informe es va fer fa 14 hores i 3 minuts, a les 23:15 UTC
Pronòstic vàlid del 03 a les 00 UTC al 03 a les 24 UTC
Vent 10 kt del Est
Visibilitat 10 km o més
Probabilitat 30%
entre IN i TE UTC
Visibilitat: 1010 m
Cel ennuvolat a una alçada de 1500 ft
Escasses núvols a una alçada de 1600 ft, Cumulonimbus.

TAF: AGGM 022315Z 0300/0324 09010KT 9999 SCTEW018 PROB30 INTER 0303/0306 5000 TSSH BKN015 FEW016CB Q 1011 1009 1008 1010

Observacions i pronòstics meteorològics de més de 4000 aeroports (METAR i TAF).

Les estacions disponibles són els punts grocs i vermells al mapa.

Posi el ratolí al punt desitjat per veure el nom de l'estació.

Feu clic per veure les observacions i els pronòstics meteorològics.

Per canviar el mapa: feu clic els botons verds amb una creu de color negre per apropar; al botó verd amb un guió per allunyar la imatge; o en les fletxes verdes per a mapes adjacents.


METAR-TAF: